Portada
METAR-TAF:

METAR-TAF

Aeroports :

Brighton, Anglaterra

latitud: 50-50N, longitud: 000-17W, altitud: 2 m

Observació

L'informe es va fer fa 32 minuts, a les 08:20 UTC
Vent 8 kt del Sud-Oest
Temperatura 18°C
Humitat 73%
Pressió 1025 hPa
Visibilitat 10 km o més
Escasses núvols a una alçada de 1600 ft

METAR: EGKA 220820Z 22008KT 9999 FEW016 18/13 Q1025

Hora: 09:52 (08:52 UTC)

Pronòstic

L'informe es va fer fa 50 minuts, a les 08:02 UTC
Pronòstic vàlid del 22 a les 09 UTC al 22 a les 18 UTC
Vent 9 kt del Sud-Oest
Visibilitat 10 km o més
Escasses núvols a una alçada de 4500 ft

TAF: EGKA 220802Z 2209/2218 22009KT 9999 FEW045

Observacions i pronòstics meteorològics de més de 4000 aeroports (METAR i TAF).

Les estacions disponibles són els punts grocs i vermells al mapa.

Posi el ratolí al punt desitjat per veure el nom de l'estació.

Feu clic per veure les observacions i els pronòstics meteorològics.

Per canviar el mapa: feu clic els botons verds amb una creu de color negre per apropar; al botó verd amb un guió per allunyar la imatge; o en les fletxes verdes per a mapes adjacents.


METAR-TAF: